createdAt,value
2022-08-25T00:00:25.217Z,3.10
2022-08-25T00:02:57.829Z,2.25
2022-08-25T00:05:29.060Z,2.34
2022-08-25T00:07:58.385Z,2.57
2022-08-25T00:10:27.377Z,2.42
2022-08-25T00:12:55.496Z,2.77
2022-08-25T00:15:22.572Z,2.70
2022-08-25T00:17:50.423Z,2.65
2022-08-25T00:20:18.589Z,1.93
2022-08-25T00:22:46.045Z,2.61
2022-08-25T00:25:15.984Z,2.30
2022-08-25T00:27:45.933Z,2.19
2022-08-25T00:30:13.975Z,1.86
2022-08-25T00:32:55.486Z,2.51
2022-08-25T00:35:27.657Z,2.04
2022-08-25T00:37:57.411Z,1.91
2022-08-25T00:40:27.130Z,1.96
2022-08-25T00:42:55.957Z,3.24
2022-08-25T00:45:25.442Z,2.83
2022-08-25T00:47:53.002Z,2.30
2022-08-25T00:50:20.144Z,1.67
2022-08-25T00:52:51.000Z,2.62
2022-08-25T00:55:28.706Z,2.58
2022-08-25T00:58:05.231Z,3.25
2022-08-25T01:00:38.936Z,3.52
2022-08-25T01:03:09.863Z,2.66
2022-08-25T01:05:39.119Z,2.43
2022-08-25T01:08:09.266Z,2.14
2022-08-25T01:10:44.961Z,1.65
2022-08-25T01:13:18.726Z,1.73
2022-08-25T01:15:48.785Z,1.87
2022-08-25T01:18:16.884Z,2.18
2022-08-25T01:20:52.423Z,2.59
2022-08-25T01:23:20.709Z,2.24
2022-08-25T01:26:00.349Z,2.27
2022-08-25T01:28:27.501Z,1.85
2022-08-25T01:30:58.874Z,2.94
2022-08-25T01:33:27.895Z,2.56
2022-08-25T01:35:56.984Z,2.10
2022-08-25T01:38:28.214Z,1.85
2022-08-25T01:40:56.183Z,1.71
2022-08-25T01:43:36.600Z,2.30
2022-08-25T01:46:04.213Z,1.97
2022-08-25T01:48:32.559Z,1.93
2022-08-25T01:51:02.229Z,2.57
2022-08-25T01:53:33.812Z,2.30
2022-08-25T01:56:09.736Z,2.95
2022-08-25T02:01:26.165Z,2.96
2022-08-25T02:03:56.809Z,3.11
2022-08-25T02:06:30.458Z,2.62
2022-08-25T02:09:02.386Z,2.61
2022-08-25T02:11:31.830Z,2.06
2022-08-25T02:14:02.679Z,1.80
2022-08-25T02:16:32.501Z,1.97
2022-08-25T02:19:02.755Z,2.01
2022-08-25T02:21:31.228Z,2.92
2022-08-25T02:24:01.231Z,2.25
2022-08-25T02:26:29.410Z,2.47
2022-08-25T02:28:56.482Z,2.79
2022-08-25T02:31:31.518Z,2.31
2022-08-25T02:34:02.605Z,1.89
2022-08-25T02:36:33.269Z,2.09
2022-08-25T02:39:01.323Z,2.02
2022-08-25T02:41:31.250Z,2.17
2022-08-25T02:43:59.307Z,1.66
2022-08-25T02:46:27.393Z,1.78
2022-08-25T02:48:54.313Z,2.11
2022-08-25T02:51:24.634Z,2.39
2022-08-25T02:53:53.861Z,2.00
2022-08-25T02:56:23.282Z,1.79
2022-08-25T02:58:50.270Z,1.68
2022-08-25T03:01:18.727Z,2.05
2022-08-25T03:03:55.195Z,1.60
2022-08-25T03:06:23.954Z,1.60
2022-08-25T03:08:55.458Z,1.82
2022-08-25T03:11:25.739Z,2.11
2022-08-25T03:13:53.961Z,2.91
2022-08-25T03:16:21.670Z,2.31
2022-08-25T03:18:54.076Z,1.65
2022-08-25T03:21:24.146Z,1.91
2022-08-25T03:24:01.071Z,2.03
2022-08-25T03:26:28.382Z,2.49
2022-08-25T03:28:57.123Z,2.05
2022-08-25T03:31:29.673Z,2.28
2022-08-25T03:33:56.703Z,3.56
2022-08-25T03:36:33.330Z,3.51
2022-08-25T03:39:06.754Z,3.51
2022-08-25T03:41:33.870Z,3.21
2022-08-25T03:44:02.135Z,2.56
2022-08-25T03:46:31.541Z,2.40
2022-08-25T03:49:05.134Z,2.21
2022-08-25T03:51:37.882Z,2.70
2022-08-25T03:54:19.100Z,2.00
2022-08-25T03:56:46.803Z,2.60
2022-08-25T03:59:18.139Z,2.81
2022-08-25T04:01:49.235Z,3.40
2022-08-25T04:04:23.243Z,3.30
2022-08-25T04:06:52.179Z,2.75
2022-08-25T04:09:20.859Z,2.91
2022-08-25T04:11:53.159Z,2.93
2022-08-25T04:14:30.798Z,2.72
2022-08-25T04:17:02.149Z,2.49
2022-08-25T04:19:30.656Z,2.59
2022-08-25T04:21:58.314Z,2.60
2022-08-25T04:24:46.136Z,2.46
2022-08-25T04:27:14.819Z,2.47
2022-08-25T04:29:46.096Z,1.95
2022-08-25T04:32:13.026Z,2.57
2022-08-25T04:34:40.372Z,2.49
2022-08-25T04:37:07.329Z,2.51
2022-08-25T04:39:36.590Z,2.19
2022-08-25T04:42:05.656Z,2.14
2022-08-25T04:44:33.121Z,2.85
2022-08-25T04:47:06.141Z,2.41
2022-08-25T04:49:33.124Z,2.38
2022-08-25T04:52:07.792Z,2.31
2022-08-25T04:54:45.089Z,4.05
2022-08-25T04:57:13.581Z,2.78
2022-08-25T04:59:43.199Z,3.97
2022-08-25T05:02:13.048Z,3.70
2022-08-25T05:04:40.361Z,2.54
2022-08-25T05:07:09.754Z,1.98
2022-08-25T05:09:36.705Z,1.79
2022-08-25T05:12:09.157Z,1.52
2022-08-25T05:14:40.150Z,1.49
2022-08-25T05:17:09.593Z,1.67
2022-08-25T05:19:37.254Z,2.35
2022-08-25T05:22:04.785Z,2.05
2022-08-25T05:24:32.114Z,2.06
2022-08-25T05:27:00.249Z,1.97
2022-08-25T05:29:27.515Z,3.17
2022-08-25T05:31:56.640Z,2.64
2022-08-25T05:34:25.241Z,2.77
2022-08-25T05:36:54.633Z,2.38
2022-08-25T05:39:26.869Z,1.98
2022-08-25T05:41:54.216Z,2.46
2022-08-25T05:44:21.693Z,2.14
2022-08-25T05:46:50.039Z,3.09
2022-08-25T05:49:20.912Z,2.73
2022-08-25T05:51:47.702Z,2.27
2022-08-25T05:54:18.091Z,2.82
2022-08-25T05:56:46.589Z,2.78
2022-08-25T05:59:13.854Z,2.26
2022-08-25T06:01:40.836Z,2.11
2022-08-25T06:04:11.098Z,2.13
2022-08-25T06:06:40.574Z,1.96
2022-08-25T06:09:09.588Z,1.63
2022-08-25T06:11:40.453Z,2.21
2022-08-25T06:14:11.719Z,1.91
2022-08-25T06:16:39.355Z,1.63
2022-08-25T06:19:09.791Z,1.56
2022-08-25T06:21:42.990Z,1.66
2022-08-25T06:24:15.569Z,1.35
2022-08-25T06:26:52.485Z,1.28
2022-08-25T06:29:22.024Z,1.72
2022-08-25T06:31:54.278Z,1.46
2022-08-25T06:34:24.546Z,1.62
2022-08-25T06:36:53.614Z,1.36
2022-08-25T06:39:21.873Z,1.49
2022-08-25T06:41:54.379Z,1.45
2022-08-25T06:44:30.926Z,1.35
2022-08-25T06:46:59.501Z,1.29
2022-08-25T06:49:30.099Z,1.20
2022-08-25T06:52:02.835Z,1.09
2022-08-25T06:54:32.476Z,0.95
2022-08-25T06:57:00.931Z,1.06
2022-08-25T06:59:32.030Z,1.30
2022-08-25T07:02:01.555Z,1.57
2022-08-25T07:04:31.608Z,1.51
2022-08-25T07:07:00.315Z,1.79
2022-08-25T07:09:37.392Z,1.99
2022-08-25T07:12:16.567Z,1.76
2022-08-25T07:15:03.560Z,2.38
2022-08-25T07:17:31.899Z,1.92
2022-08-25T07:20:03.725Z,1.88
2022-08-25T07:22:43.687Z,1.90
2022-08-25T07:25:17.735Z,1.98
2022-08-25T07:27:55.873Z,1.74
2022-08-25T07:30:29.719Z,1.61
2022-08-25T07:33:00.058Z,1.39
2022-08-25T07:35:38.008Z,1.47
2022-08-25T07:41:05.445Z,1.49
2022-08-25T07:43:32.961Z,1.92
2022-08-25T07:46:01.682Z,1.48
2022-08-25T07:48:32.234Z,1.27
2022-08-25T07:51:12.853Z,1.82
2022-08-25T07:53:43.543Z,1.50
2022-08-25T07:56:14.029Z,1.39
2022-08-25T07:58:47.284Z,1.13
2022-08-25T08:03:50.461Z,23.51
2022-08-25T08:06:23.494Z,13.47
2022-08-25T08:08:59.171Z,8.52
2022-08-25T08:11:35.514Z,5.72
2022-08-25T08:14:04.604Z,3.47
2022-08-25T08:16:32.724Z,2.15
2022-08-25T08:19:00.714Z,1.50
2022-08-25T08:21:31.586Z,1.77
2022-08-25T08:24:02.064Z,1.53
2022-08-25T08:26:55.304Z,1.10
2022-08-25T08:29:20.603Z,1.11
2022-08-25T08:31:55.452Z,1.09
2022-08-25T08:34:24.991Z,1.65
2022-08-25T08:36:52.490Z,1.57
2022-08-25T08:39:19.672Z,1.88
2022-08-25T08:42:11.883Z,1.78
2022-08-25T08:44:50.448Z,1.45
2022-08-25T08:47:28.836Z,1.25
2022-08-25T08:50:03.927Z,1.32
2022-08-25T08:52:40.845Z,1.60
2022-08-25T08:55:24.070Z,1.75
2022-08-25T08:57:56.979Z,1.61
2022-08-25T09:00:26.776Z,1.28
2022-08-25T09:03:02.592Z,1.15
2022-08-25T09:05:46.688Z,1.96
2022-08-25T09:08:20.541Z,1.99
2022-08-25T09:11:02.243Z,1.59
2022-08-25T09:13:45.484Z,1.36
2022-08-25T09:16:20.423Z,1.00
2022-08-25T09:19:12.519Z,0.90
2022-08-25T09:22:03.749Z,0.79
2022-08-25T09:25:08.526Z,1.13
2022-08-25T09:27:44.918Z,0.98
2022-08-25T09:30:21.752Z,0.97
2022-08-25T09:32:55.455Z,0.77
2022-08-25T09:35:27.699Z,15.69
2022-08-25T09:37:59.129Z,8.86
2022-08-25T09:40:30.517Z,56.97
2022-08-25T09:43:00.595Z,31.26
2022-08-25T09:45:44.075Z,17.54
2022-08-25T09:48:26.358Z,10.13
2022-08-25T09:51:00.886Z,6.55
2022-08-25T09:53:35.033Z,4.68
2022-08-25T09:56:10.395Z,3.18
2022-08-25T09:58:38.721Z,2.47
2022-08-25T10:01:22.587Z,2.40
2022-08-25T10:04:02.408Z,1.87
2022-08-25T10:06:35.387Z,1.44
2022-08-25T10:09:05.946Z,1.35
2022-08-25T10:11:41.507Z,1.29
2022-08-25T10:14:26.750Z,1.24
2022-08-25T10:17:13.697Z,1.20
2022-08-25T10:19:42.247Z,1.28
2022-08-25T10:22:11.357Z,1.54
2022-08-25T10:24:44.007Z,1.19
2022-08-25T10:27:23.845Z,1.38
2022-08-25T10:30:06.751Z,1.27
2022-08-25T10:32:54.468Z,1.51
2022-08-25T10:35:28.863Z,2.01
2022-08-25T10:38:07.751Z,1.66
2022-08-25T10:40:41.577Z,1.61
2022-08-25T10:43:23.876Z,1.35
2022-08-25T10:45:59.239Z,1.27
2022-08-25T10:48:47.963Z,1.62
2022-08-25T10:51:38.636Z,1.36
2022-08-25T10:54:14.487Z,1.12
2022-08-25T10:56:53.069Z,0.99
2022-08-25T10:59:37.611Z,1.18
2022-08-25T11:02:45.162Z,1.88
2022-08-25T11:05:25.002Z,1.43
2022-08-25T11:08:04.091Z,1.50
2022-08-25T11:10:40.735Z,1.35
2022-08-25T11:13:15.996Z,1.31
2022-08-25T11:16:13.754Z,1.83
2022-08-25T11:18:50.852Z,1.53
2022-08-25T11:21:25.011Z,1.84
2022-08-25T11:24:01.581Z,1.61
2022-08-25T11:26:37.102Z,1.45
2022-08-25T11:29:11.992Z,1.39
2022-08-25T11:31:44.077Z,1.57
2022-08-25T11:34:15.875Z,1.56
2022-08-25T11:36:57.357Z,1.42
2022-08-25T11:39:48.173Z,1.97
2022-08-25T11:42:26.924Z,1.81
2022-08-25T11:45:05.788Z,1.48
2022-08-25T11:47:48.981Z,1.52
2022-08-25T11:50:30.343Z,1.30
2022-08-25T11:53:16.862Z,1.73
2022-08-25T11:55:51.093Z,1.66
2022-08-25T11:58:31.053Z,1.44
2022-08-25T12:01:01.028Z,1.39
2022-08-25T12:03:51.027Z,1.31
2022-08-25T12:06:25.864Z,2.42
2022-08-25T12:09:22.243Z,2.30
2022-08-25T12:11:55.102Z,2.44
2022-08-25T12:14:51.537Z,3.19
2022-08-25T12:17:24.049Z,2.83
2022-08-25T12:19:58.447Z,3.80
2022-08-25T12:22:56.235Z,2.61
2022-08-25T12:25:39.444Z,2.27
2022-08-25T12:28:28.220Z,3.25
2022-08-25T12:31:10.645Z,2.53
2022-08-25T12:33:51.732Z,2.97
2022-08-25T12:36:28.869Z,2.30
2022-08-25T12:39:24.330Z,2.87
2022-08-25T12:44:37.886Z,2.80
2022-08-25T12:47:25.550Z,2.07
2022-08-25T12:49:54.471Z,1.73
2022-08-25T12:52:27.956Z,1.53
2022-08-25T12:57:43.418Z,1.90
2022-08-25T13:00:20.239Z,2.37
2022-08-25T13:03:35.560Z,2.18
2022-08-25T13:06:24.079Z,1.89
2022-08-25T13:09:10.911Z,2.34
2022-08-25T13:11:44.122Z,2.62
2022-08-25T13:14:21.826Z,2.14
2022-08-25T13:16:58.104Z,2.29
2022-08-25T13:19:27.232Z,2.67
2022-08-25T13:21:59.282Z,2.73
2022-08-25T13:24:54.045Z,2.09
2022-08-25T13:27:27.949Z,3.44
2022-08-25T13:30:03.741Z,2.89
2022-08-25T13:32:35.506Z,2.85
2022-08-25T13:35:15.006Z,2.64
2022-08-25T13:37:45.254Z,2.70
2022-08-25T13:40:15.287Z,2.66
2022-08-25T13:42:54.431Z,2.68
2022-08-25T13:45:27.269Z,3.64
2022-08-25T13:48:00.742Z,2.77
2022-08-25T13:50:36.007Z,2.30
2022-08-25T13:53:05.958Z,2.53
2022-08-25T13:55:50.363Z,3.05
2022-08-25T13:58:24.232Z,2.92
2022-08-25T14:04:04.267Z,2.82
2022-08-25T14:06:31.374Z,3.13
2022-08-25T14:09:12.295Z,3.72
2022-08-25T14:11:43.202Z,2.78
2022-08-25T14:14:12.878Z,3.30
2022-08-25T14:16:48.929Z,2.43
2022-08-25T14:19:21.281Z,2.84
2022-08-25T14:21:52.874Z,2.28
2022-08-25T14:24:26.881Z,2.24
2022-08-25T14:26:55.487Z,2.28
2022-08-25T14:29:23.292Z,3.40
2022-08-25T14:31:52.101Z,3.35
2022-08-25T14:34:23.008Z,3.22
2022-08-25T14:36:52.350Z,2.70
2022-08-25T14:39:21.797Z,2.78
2022-08-25T14:41:53.127Z,3.31
2022-08-25T14:44:21.508Z,3.16
2022-08-25T14:46:54.967Z,3.04
2022-08-25T14:49:24.940Z,3.07
2022-08-25T14:51:54.903Z,2.92
2022-08-25T14:54:27.333Z,2.59
2022-08-25T14:56:54.589Z,3.36
2022-08-25T14:59:22.491Z,2.88
2022-08-25T15:01:51.137Z,3.36
2022-08-25T15:04:23.264Z,3.22
2022-08-25T15:06:55.494Z,2.65
2022-08-25T15:09:24.361Z,2.60
2022-08-25T15:11:55.841Z,2.35
2022-08-25T15:14:28.423Z,2.61
2022-08-25T15:17:00.774Z,2.53
2022-08-25T15:19:30.278Z,2.46
2022-08-25T15:21:57.924Z,2.36
2022-08-25T15:24:34.994Z,2.23
2022-08-25T15:27:10.262Z,4.17
2022-08-25T15:29:42.060Z,3.62
2022-08-25T15:32:09.461Z,2.90
2022-08-25T15:34:44.172Z,2.52
2022-08-25T15:37:17.534Z,2.10
2022-08-25T15:39:45.967Z,2.17
2022-08-25T15:42:14.739Z,1.80
2022-08-25T15:44:42.259Z,2.60
2022-08-25T15:47:21.836Z,3.32
2022-08-25T15:50:05.271Z,3.59
2022-08-25T15:52:46.004Z,2.80
2022-08-25T15:55:17.046Z,2.56
2022-08-25T15:57:44.121Z,1.96
2022-08-25T16:00:17.066Z,1.69
2022-08-25T16:02:47.282Z,2.07
2022-08-25T16:05:16.697Z,1.37
2022-08-25T16:07:44.603Z,1.67
2022-08-25T16:10:14.165Z,1.48
2022-08-25T16:12:42.872Z,1.02
2022-08-25T16:15:15.298Z,1.08
2022-08-25T16:17:50.567Z,0.85
2022-08-25T16:20:21.078Z,0.89
2022-08-25T16:22:53.061Z,0.99
2022-08-25T16:25:20.953Z,0.80
2022-08-25T16:27:52.814Z,0.85
2022-08-25T16:33:08.263Z,0.62
2022-08-25T16:35:43.832Z,0.71
2022-08-25T16:38:12.411Z,0.96
2022-08-25T16:40:42.034Z,0.86
2022-08-25T16:43:12.359Z,0.73
2022-08-25T16:45:41.127Z,1.90
2022-08-25T16:48:10.101Z,1.39
2022-08-25T16:50:41.067Z,1.09
2022-08-25T16:53:08.173Z,1.22
2022-08-25T16:55:47.532Z,1.74
2022-08-25T16:58:16.828Z,2.43
2022-08-25T17:00:44.580Z,1.53
2022-08-25T17:03:12.195Z,1.24
2022-08-25T17:05:42.786Z,1.34
2022-08-25T17:08:09.777Z,2.49
2022-08-25T17:10:40.547Z,2.11
2022-08-25T17:13:10.007Z,1.65
2022-08-25T17:15:41.399Z,1.56
2022-08-25T17:18:12.707Z,1.32
2022-08-25T17:20:51.288Z,1.14
2022-08-25T17:23:22.198Z,2.12
2022-08-25T17:25:50.637Z,2.22
2022-08-25T17:28:18.693Z,3.52
2022-08-25T17:30:46.010Z,2.69
2022-08-25T17:33:14.620Z,2.43
2022-08-25T17:35:46.342Z,4.45
2022-08-25T17:38:20.097Z,4.09
2022-08-25T17:40:49.732Z,4.18
2022-08-25T17:43:21.945Z,3.05
2022-08-25T17:45:52.234Z,3.40
2022-08-25T17:48:26.850Z,5.01
2022-08-25T17:51:00.869Z,6.97
2022-08-25T17:53:30.295Z,6.35
2022-08-25T17:56:00.228Z,5.85
2022-08-25T17:58:30.433Z,5.46
2022-08-25T18:00:58.825Z,5.00
2022-08-25T18:03:29.161Z,4.04
2022-08-25T18:06:03.553Z,4.14
2022-08-25T18:08:35.139Z,4.37
2022-08-25T18:11:03.250Z,4.42
2022-08-25T18:13:31.652Z,5.90
2022-08-25T18:16:00.133Z,4.98
2022-08-25T18:18:29.581Z,5.29
2022-08-25T18:21:00.509Z,5.87
2022-08-25T18:23:28.693Z,6.24
2022-08-25T18:26:00.815Z,7.12
2022-08-25T18:28:31.075Z,6.13
2022-08-25T18:31:00.163Z,5.40
2022-08-25T18:33:29.836Z,5.06
2022-08-25T18:36:00.324Z,4.81
2022-08-25T18:38:27.490Z,7.99
2022-08-25T18:40:56.196Z,6.81
2022-08-25T18:43:23.446Z,6.78
2022-08-25T18:45:51.671Z,6.31
2022-08-25T18:48:21.394Z,5.93
2022-08-25T18:50:54.628Z,5.65
2022-08-25T18:53:36.688Z,5.48
2022-08-25T18:56:14.360Z,5.02
2022-08-25T18:58:41.836Z,5.86
2022-08-25T19:01:13.092Z,7.15
2022-08-25T19:03:41.335Z,6.81
2022-08-25T19:06:13.913Z,6.30
2022-08-25T19:08:43.471Z,5.87
2022-08-25T19:11:10.519Z,5.69
2022-08-25T19:13:39.750Z,7.14
2022-08-25T19:16:17.692Z,6.43
2022-08-25T19:18:52.069Z,5.13
2022-08-25T19:21:22.585Z,5.53
2022-08-25T19:23:55.142Z,5.39
2022-08-25T19:26:25.852Z,5.12
2022-08-25T19:29:01.828Z,4.58
2022-08-25T19:31:30.118Z,4.53
2022-08-25T19:34:01.344Z,4.00
2022-08-25T19:36:41.355Z,4.95
2022-08-25T19:39:16.426Z,6.11
2022-08-25T19:41:52.581Z,5.69
2022-08-25T19:44:27.785Z,5.25
2022-08-25T19:47:01.163Z,5.48
2022-08-25T19:49:32.768Z,5.24
2022-08-25T19:52:05.229Z,6.10
2022-08-25T19:54:49.509Z,5.36
2022-08-25T19:57:27.974Z,6.55
2022-08-25T20:00:09.150Z,5.62
2022-08-25T20:02:37.876Z,4.55
2022-08-25T20:05:06.858Z,4.79
2022-08-25T20:07:41.049Z,4.49
2022-08-25T20:10:17.833Z,5.41
2022-08-25T20:12:46.000Z,7.61
2022-08-25T20:15:16.536Z,6.59
2022-08-25T20:17:44.233Z,5.94
2022-08-25T20:20:15.614Z,4.78
2022-08-25T20:22:45.745Z,4.25
2022-08-25T20:25:22.682Z,4.17
2022-08-25T20:27:56.876Z,4.55
2022-08-25T20:30:27.424Z,5.31
2022-08-25T20:32:58.140Z,5.30
2022-08-25T20:35:28.359Z,5.72
2022-08-25T20:37:56.506Z,5.07
2022-08-25T20:40:34.260Z,4.99
2022-08-25T20:43:03.317Z,4.66
2022-08-25T20:45:32.301Z,4.86
2022-08-25T20:48:04.021Z,5.12
2022-08-25T20:50:31.462Z,4.53
2022-08-25T20:52:59.989Z,4.05
2022-08-25T20:55:29.229Z,5.07
2022-08-25T20:58:12.524Z,5.12
2022-08-25T21:00:42.121Z,6.29
2022-08-25T21:03:13.536Z,7.35
2022-08-25T21:05:47.958Z,6.96
2022-08-25T21:08:26.662Z,5.82
2022-08-25T21:10:58.198Z,5.27
2022-08-25T21:13:27.003Z,5.91
2022-08-25T21:16:01.016Z,6.49
2022-08-25T21:18:38.123Z,6.54
2022-08-25T21:21:11.908Z,6.12
2022-08-25T21:23:41.425Z,6.19
2022-08-25T21:26:16.011Z,5.78
2022-08-25T21:28:47.760Z,5.40
2022-08-25T21:31:19.952Z,5.76
2022-08-25T21:33:48.149Z,6.51
2022-08-25T21:36:17.743Z,6.07
2022-08-25T21:38:48.175Z,6.79
2022-08-25T21:41:19.309Z,7.39
2022-08-25T21:43:47.873Z,6.93
2022-08-25T21:46:21.573Z,6.77
2022-08-25T21:48:50.321Z,6.44
2022-08-25T21:51:25.589Z,5.62
2022-08-25T21:53:53.113Z,7.67
2022-08-25T21:56:26.284Z,6.94
2022-08-25T21:58:53.207Z,5.91
2022-08-25T22:01:25.066Z,5.68
2022-08-25T22:03:54.255Z,5.08
2022-08-25T22:06:24.940Z,3.97
2022-08-25T22:08:52.184Z,4.51
2022-08-25T22:11:25.325Z,5.00
2022-08-25T22:13:53.477Z,4.52
2022-08-25T22:16:23.815Z,5.26
2022-08-25T22:18:53.785Z,5.97
2022-08-25T22:21:21.755Z,5.70
2022-08-25T22:23:49.408Z,5.69
2022-08-25T22:26:20.759Z,4.91
2022-08-25T22:28:52.187Z,5.28
2022-08-25T22:31:20.858Z,5.33
2022-08-25T22:33:53.348Z,6.24
2022-08-25T22:36:25.794Z,5.99
2022-08-25T22:38:56.133Z,5.76
2022-08-25T22:41:25.428Z,5.62
2022-08-25T22:43:56.006Z,6.36
2022-08-25T22:46:31.827Z,6.00
2022-08-25T22:49:04.224Z,7.72
2022-08-25T22:51:32.726Z,7.05
2022-08-25T22:54:05.050Z,6.25
2022-08-25T22:56:37.356Z,6.56
2022-08-25T22:59:22.100Z,7.23
2022-08-25T23:04:19.161Z,9.43
2022-08-25T23:06:48.363Z,7.88
2022-08-25T23:09:18.032Z,6.46
2022-08-25T23:11:46.798Z,6.30
2022-08-25T23:14:15.376Z,6.93
2022-08-25T23:16:43.404Z,5.92
2022-08-25T23:19:13.904Z,6.40
2022-08-25T23:21:42.344Z,5.38
2022-08-25T23:24:11.095Z,6.34
2022-08-25T23:26:42.019Z,5.52
2022-08-25T23:29:17.435Z,5.67
2022-08-25T23:31:50.794Z,5.03
2022-08-25T23:34:24.010Z,4.93
2022-08-25T23:36:54.684Z,4.79
2022-08-25T23:39:23.331Z,4.45
2022-08-25T23:41:51.605Z,4.33
2022-08-25T23:44:21.142Z,4.45
2022-08-25T23:46:50.988Z,4.13
2022-08-25T23:49:20.042Z,4.58
2022-08-25T23:51:50.245Z,4.36
2022-08-25T23:54:20.587Z,6.24
2022-08-25T23:56:52.402Z,6.44
2022-08-25T23:59:24.336Z,5.92
